KSMO

Santa Monica Municipal Airport

Santa Monica, California, USA
METAR KSMO 260351Z 26006KT 10SM CLR 16/10 A3005 RMK AO2 SLP174 T01560100
Observed Flight Rules
May-26 @ 03:51 UTC (31 minutes ago) Visual Flight Rules
Wind Visibility Clouds
260° at 6 knots 10 miles
  • Clear skies
Temperatures Readings
Current 16°C / 61°F
Dewpoint 10°C / 50°F
Humidity 68%
Altimeter 30.05" Hg
Pressure 1017.4 hPa
Elevation 57
METAR KSMO 260351Z 26006KT 10SM CLR 16/10 A3005 RMK AO2 SLP174 T01560100
Observed Flight Rules
May-26 @ 03:51 UTC
(31 minutes ago)
VFR
Wind Visibility
260° at 6 knots 10 miles
Clouds
  • Clear skies
Temperature Dewpoint
16°C / 61°F 10°C / 50°F
Humidity Altimeter Pressure
68% 30.05" Hg 1017.4 hPa